createdAt,value
2023-02-01T00:02:19.673Z,80.47
2023-02-01T00:04:50.918Z,80.77
2023-02-01T00:07:21.656Z,79.87
2023-02-01T00:09:51.583Z,77.90
2023-02-01T00:12:20.572Z,79.00
2023-02-01T00:14:49.801Z,80.47
2023-02-01T00:17:18.818Z,87.17
2023-02-01T00:19:47.847Z,82.07
2023-02-01T00:22:18.881Z,79.60
2023-02-01T00:24:49.356Z,80.60
2023-02-01T00:27:21.562Z,77.87
2023-02-01T00:29:50.731Z,75.97
2023-02-01T00:32:19.806Z,69.80
2023-02-01T00:34:48.903Z,69.23
2023-02-01T00:37:17.870Z,65.33
2023-02-01T00:39:46.881Z,61.33
2023-02-01T00:42:17.491Z,59.10
2023-02-01T00:44:46.532Z,60.33
2023-02-01T00:47:15.670Z,56.60
2023-02-01T00:49:44.716Z,58.30
2023-02-01T00:52:13.761Z,57.17
2023-02-01T00:54:42.805Z,54.50
2023-02-01T00:57:12.079Z,54.97
2023-02-01T00:59:44.858Z,53.33
2023-02-01T01:02:15.642Z,54.03
2023-02-01T01:04:44.652Z,55.87
2023-02-01T01:07:13.765Z,55.90
2023-02-01T01:09:45.043Z,54.83
2023-02-01T01:12:14.075Z,54.93
2023-02-01T01:14:44.702Z,59.57
2023-02-01T01:17:13.853Z,60.77
2023-02-01T01:19:45.257Z,63.87
2023-02-01T01:22:14.358Z,63.80
2023-02-01T01:24:43.480Z,65.93
2023-02-01T01:27:12.487Z,67.77
2023-02-01T01:29:41.571Z,70.77
2023-02-01T01:32:12.066Z,78.87
2023-02-01T01:34:45.495Z,76.33
2023-02-01T01:37:14.656Z,76.77
2023-02-01T01:39:43.698Z,76.93
2023-02-01T01:42:14.591Z,79.67
2023-02-01T01:45:04.952Z,78.87
2023-02-01T01:47:40.102Z,75.70
2023-02-01T01:50:12.526Z,79.53
2023-02-01T01:52:43.639Z,75.27
2023-02-01T01:55:15.693Z,73.83
2023-02-01T01:57:49.236Z,75.37
2023-02-01T02:00:22.240Z,75.77
2023-02-01T02:03:01.810Z,75.97
2023-02-01T02:05:33.504Z,72.43
2023-02-01T02:08:03.400Z,75.93
2023-02-01T02:10:46.862Z,77.63
2023-02-01T02:13:17.257Z,75.37
2023-02-01T02:15:56.146Z,73.70
2023-02-01T02:18:34.189Z,75.07
2023-02-01T02:21:17.155Z,72.80
2023-02-01T02:24:27.956Z,73.13
2023-02-01T02:27:25.781Z,69.70
2023-02-01T02:30:27.796Z,70.80
2023-02-01T02:33:32.004Z,74.57
2023-02-01T02:36:04.385Z,72.27
2023-02-01T02:38:42.970Z,69.27
2023-02-01T02:41:39.084Z,66.83
2023-02-01T02:44:34.556Z,66.37
2023-02-01T02:47:28.861Z,64.27
2023-02-01T02:50:44.089Z,62.23
2023-02-01T02:53:37.508Z,74.33
2023-02-01T02:56:27.479Z,76.07
2023-02-01T02:59:18.188Z,71.20
2023-02-01T03:02:04.971Z,69.43
2023-02-01T03:04:34.070Z,70.67
2023-02-01T03:07:16.516Z,67.13
2023-02-01T03:09:49.926Z,71.67
2023-02-01T03:12:42.500Z,68.80
2023-02-01T03:15:14.536Z,66.27
2023-02-01T03:17:48.080Z,66.43
2023-02-01T03:20:21.418Z,64.43
2023-02-01T03:22:58.634Z,61.03
2023-02-01T03:25:31.312Z,59.83
2023-02-01T03:28:07.683Z,61.40
2023-02-01T03:30:42.215Z,57.17
2023-02-01T03:33:25.705Z,57.87
2023-02-01T03:36:05.919Z,56.87
2023-02-01T03:38:42.609Z,57.57
2023-02-01T03:41:21.168Z,55.27
2023-02-01T03:43:58.370Z,55.70
2023-02-01T03:46:37.817Z,56.00
2023-02-01T03:49:11.316Z,56.77
2023-02-01T03:51:47.565Z,54.07
2023-02-01T03:54:19.926Z,54.20
2023-02-01T03:56:53.049Z,54.23
2023-02-01T03:59:22.206Z,53.87
2023-02-01T04:01:51.157Z,53.70
2023-02-01T04:04:25.011Z,53.30
2023-02-01T04:06:56.297Z,52.70
2023-02-01T04:09:26.861Z,51.93
2023-02-01T04:11:56.232Z,55.40
2023-02-01T04:14:25.376Z,51.53
2023-02-01T04:16:56.279Z,56.73
2023-02-01T04:19:25.529Z,56.83
2023-02-01T04:21:54.446Z,57.33
2023-02-01T04:24:23.441Z,53.40
2023-02-01T04:29:36.537Z,47.03
2023-02-01T04:32:08.704Z,46.93
2023-02-01T04:34:39.914Z,48.07
2023-02-01T04:37:08.976Z,47.73
2023-02-01T04:39:38.070Z,47.77
2023-02-01T04:42:09.881Z,48.67
2023-02-01T04:44:40.756Z,48.77
2023-02-01T04:47:10.695Z,48.93
2023-02-01T04:49:39.756Z,49.47
2023-02-01T04:52:10.391Z,48.60
2023-02-01T04:54:48.499Z,52.20
2023-02-01T04:57:18.934Z,51.77
2023-02-01T04:59:50.341Z,51.47
2023-02-01T05:02:20.585Z,50.57
2023-02-01T05:05:00.832Z,52.53
2023-02-01T05:07:29.949Z,52.20
2023-02-01T05:09:59.116Z,53.77
2023-02-01T05:12:47.078Z,53.83
2023-02-01T05:15:18.283Z,52.23
2023-02-01T05:17:47.381Z,57.97
2023-02-01T05:20:16.456Z,57.97
2023-02-01T05:22:45.450Z,56.37
2023-02-01T05:25:14.441Z,51.70
2023-02-01T05:27:45.192Z,54.07
2023-02-01T05:30:15.006Z,65.67
2023-02-01T05:32:46.107Z,64.93
2023-02-01T05:35:16.872Z,55.93
2023-02-01T05:37:47.637Z,52.27
2023-02-01T05:40:16.643Z,50.10
2023-02-01T05:42:47.379Z,51.23
2023-02-01T05:45:16.560Z,48.00
2023-02-01T05:47:45.510Z,51.00
2023-02-01T05:50:17.073Z,49.37
2023-02-01T05:52:46.243Z,48.27
2023-02-01T05:55:15.354Z,48.00
2023-02-01T05:57:44.388Z,47.77
2023-02-01T06:00:16.159Z,48.03
2023-02-01T06:02:45.395Z,45.60
2023-02-01T06:05:14.494Z,46.50
2023-02-01T06:07:43.584Z,45.57
2023-02-01T06:10:14.983Z,45.10
2023-02-01T06:12:43.977Z,45.53
2023-02-01T06:15:16.979Z,45.73
2023-02-01T06:17:47.322Z,49.83
2023-02-01T06:20:17.959Z,46.70
2023-02-01T06:22:47.079Z,55.10
2023-02-01T06:25:16.368Z,56.40
2023-02-01T06:27:46.276Z,56.07
2023-02-01T06:30:17.172Z,71.27
2023-02-01T06:32:54.837Z,67.30
2023-02-01T06:35:24.269Z,66.50
2023-02-01T06:37:54.022Z,82.77
2023-02-01T06:40:25.682Z,79.53
2023-02-01T06:42:54.829Z,64.93
2023-02-01T06:45:25.461Z,58.33
2023-02-01T06:47:55.820Z,55.50
2023-02-01T06:50:25.965Z,52.83
2023-02-01T06:52:54.973Z,50.63
2023-02-01T06:55:24.011Z,51.73
2023-02-01T06:57:56.918Z,52.83
2023-02-01T07:00:31.977Z,51.50
2023-02-01T07:03:02.354Z,54.37
2023-02-01T07:05:31.639Z,54.23
2023-02-01T07:08:00.618Z,53.63
2023-02-01T07:10:31.791Z,52.87
2023-02-01T07:13:00.929Z,52.57
2023-02-01T07:15:33.641Z,53.43
2023-02-01T07:18:02.671Z,53.30
2023-02-01T07:20:33.016Z,53.47
2023-02-01T07:23:02.112Z,52.50
2023-02-01T07:25:31.129Z,51.53
2023-02-01T07:28:00.302Z,52.63
2023-02-01T07:30:30.895Z,54.03
2023-02-01T07:33:04.966Z,53.13
2023-02-01T07:35:34.261Z,54.47
2023-02-01T07:38:03.391Z,57.50
2023-02-01T07:40:32.405Z,67.80
2023-02-01T07:43:02.835Z,65.53
2023-02-01T07:45:36.635Z,62.80
2023-02-01T07:48:06.692Z,66.93
2023-02-01T07:50:36.845Z,62.57
2023-02-01T07:53:07.199Z,66.70
2023-02-01T07:55:37.862Z,66.50
2023-02-01T07:58:06.945Z,64.37
2023-02-01T08:00:54.919Z,60.40
2023-02-01T08:03:26.103Z,55.93
2023-02-01T08:06:00.238Z,60.03
2023-02-01T08:08:29.441Z,65.43
2023-02-01T08:11:01.683Z,59.97
2023-02-01T08:13:32.336Z,60.20
2023-02-01T08:16:05.855Z,58.17
2023-02-01T08:18:35.434Z,46.97
2023-02-01T08:21:12.708Z,43.27
2023-02-01T08:23:45.139Z,41.77
2023-02-01T08:26:18.301Z,44.07
2023-02-01T08:28:51.268Z,44.77
2023-02-01T08:31:24.136Z,44.07
2023-02-01T08:33:55.443Z,43.10
2023-02-01T08:36:27.154Z,43.77
2023-02-01T08:38:56.481Z,44.87
2023-02-01T08:41:27.445Z,45.57
2023-02-01T08:43:58.161Z,46.53
2023-02-01T08:46:28.984Z,44.77
2023-02-01T08:48:58.140Z,45.30
2023-02-01T08:51:27.443Z,47.30
2023-02-01T08:53:59.714Z,46.40
2023-02-01T08:56:28.851Z,46.83
2023-02-01T08:58:59.864Z,46.03
2023-02-01T09:01:37.658Z,46.07
2023-02-01T09:04:06.996Z,46.83
2023-02-01T09:06:38.360Z,45.07
2023-02-01T09:09:07.483Z,45.03
2023-02-01T09:11:39.089Z,48.17
2023-02-01T09:14:08.180Z,46.10
2023-02-01T09:16:38.710Z,47.73
2023-02-01T09:19:25.099Z,47.17
2023-02-01T09:21:55.323Z,44.60
2023-02-01T09:24:24.514Z,47.60
2023-02-01T09:26:54.000Z,52.67
2023-02-01T09:29:23.105Z,56.83
2023-02-01T09:32:03.383Z,62.13
2023-02-01T09:34:33.703Z,53.37
2023-02-01T09:37:03.128Z,50.37
2023-02-01T09:39:34.774Z,54.93
2023-02-01T09:42:31.136Z,56.83
2023-02-01T09:45:10.853Z,54.23
2023-02-01T09:47:50.534Z,57.03
2023-02-01T09:50:22.980Z,55.93
2023-02-01T09:52:58.405Z,51.67
2023-02-01T09:55:43.263Z,50.53
2023-02-01T09:58:18.084Z,49.90
2023-02-01T10:00:54.257Z,61.33
2023-02-01T10:03:29.069Z,58.67
2023-02-01T10:06:11.776Z,51.40
2023-02-01T10:09:08.179Z,49.90
2023-02-01T10:11:52.859Z,55.27
2023-02-01T10:14:39.255Z,50.03
2023-02-01T10:17:20.372Z,50.73
2023-02-01T10:20:01.791Z,50.60
2023-02-01T10:23:03.719Z,50.53
2023-02-01T10:25:48.986Z,45.27
2023-02-01T10:28:19.832Z,47.90
2023-02-01T10:30:52.852Z,45.57
2023-02-01T10:33:29.138Z,47.67
2023-02-01T10:36:10.185Z,46.03
2023-02-01T10:38:42.368Z,47.73
2023-02-01T10:41:17.353Z,53.60
2023-02-01T10:43:48.541Z,44.93
2023-02-01T10:46:18.746Z,44.27
2023-02-01T10:48:52.591Z,48.03
2023-02-01T10:51:27.587Z,48.57
2023-02-01T10:54:10.119Z,52.57
2023-02-01T10:56:41.336Z,52.43
2023-02-01T10:59:19.832Z,53.47
2023-02-01T11:01:53.069Z,50.40
2023-02-01T11:04:29.165Z,57.70
2023-02-01T11:07:09.956Z,57.17
2023-02-01T11:09:43.374Z,58.00
2023-02-01T11:12:35.174Z,57.67
2023-02-01T11:15:20.963Z,56.20
2023-02-01T11:17:52.716Z,56.60
2023-02-01T11:20:35.187Z,56.93
2023-02-01T11:23:07.094Z,58.33
2023-02-01T11:25:41.588Z,62.10
2023-02-01T11:28:12.915Z,60.40
2023-02-01T11:30:45.418Z,55.80
2023-02-01T11:33:21.778Z,57.97
2023-02-01T11:35:51.497Z,58.07
2023-02-01T11:38:30.455Z,56.93
2023-02-01T11:41:15.060Z,57.20
2023-02-01T11:44:01.615Z,57.90
2023-02-01T11:46:36.578Z,57.77
2023-02-01T11:49:28.809Z,56.27
2023-02-01T11:52:13.170Z,57.37
2023-02-01T11:55:04.566Z,59.53
2023-02-01T11:57:47.879Z,58.03
2023-02-01T12:00:42.737Z,59.63
2023-02-01T12:03:52.353Z,57.43
2023-02-01T12:06:31.126Z,56.67
2023-02-01T12:09:20.395Z,55.90
2023-02-01T12:12:05.481Z,56.53
2023-02-01T12:14:46.518Z,57.93
2023-02-01T12:18:00.451Z,58.37
2023-02-01T12:20:59.322Z,55.53
2023-02-01T12:23:48.668Z,54.73
2023-02-01T12:26:50.941Z,58.10
2023-02-01T12:29:54.965Z,55.67
2023-02-01T12:32:34.594Z,55.20
2023-02-01T12:35:38.808Z,59.10
2023-02-01T12:38:23.985Z,57.87
2023-02-01T12:41:05.001Z,56.67
2023-02-01T12:43:42.337Z,55.93
2023-02-01T12:46:17.666Z,57.27
2023-02-01T12:48:57.928Z,57.70
2023-02-01T12:51:30.418Z,55.93
2023-02-01T12:54:06.155Z,55.70
2023-02-01T12:56:42.486Z,55.70
2023-02-01T12:59:21.360Z,55.30
2023-02-01T13:02:00.324Z,54.97
2023-02-01T13:04:35.142Z,54.97
2023-02-01T13:07:12.445Z,55.23
2023-02-01T13:09:47.567Z,55.67
2023-02-01T13:12:19.964Z,54.20
2023-02-01T13:14:58.060Z,55.57
2023-02-01T13:17:34.731Z,55.60
2023-02-01T13:20:09.225Z,55.53
2023-02-01T13:22:44.826Z,53.67
2023-02-01T13:25:17.474Z,55.27
2023-02-01T13:27:47.619Z,56.37
2023-02-01T13:30:24.080Z,54.17
2023-02-01T13:33:52.495Z,56.07
2023-02-01T13:36:57.214Z,54.67
2023-02-01T13:39:55.229Z,53.60
2023-02-01T13:42:26.596Z,54.17
2023-02-01T13:45:03.236Z,54.43
2023-02-01T13:47:34.576Z,54.10
2023-02-01T13:50:16.465Z,52.53
2023-02-01T13:52:49.402Z,54.00
2023-02-01T13:55:34.746Z,53.50
2023-02-01T13:58:16.064Z,53.97
2023-02-01T14:00:45.763Z,53.27
2023-02-01T14:03:20.838Z,51.17
2023-02-01T14:06:18.169Z,51.37
2023-02-01T14:09:31.003Z,49.10
2023-02-01T14:12:02.468Z,48.73
2023-02-01T14:14:47.408Z,49.40
2023-02-01T14:17:38.563Z,47.43
2023-02-01T14:20:46.968Z,48.37
2023-02-01T14:23:29.577Z,50.33
2023-02-01T14:26:23.150Z,49.63
2023-02-01T14:29:22.087Z,50.93
2023-02-01T14:31:59.657Z,50.10
2023-02-01T14:34:36.706Z,49.03
2023-02-01T14:37:15.415Z,54.07
2023-02-01T14:39:58.090Z,54.07
2023-02-01T14:42:41.083Z,56.00
2023-02-01T14:45:55.274Z,52.43
2023-02-01T14:48:50.612Z,56.67
2023-02-01T14:51:21.902Z,55.87
2023-02-01T14:53:52.417Z,53.73
2023-02-01T14:56:23.541Z,55.40
2023-02-01T14:58:59.487Z,55.43
2023-02-01T15:01:35.300Z,55.03
2023-02-01T15:04:08.378Z,56.23
2023-02-01T15:06:41.674Z,56.60
2023-02-01T15:09:23.000Z,57.30
2023-02-01T15:12:05.677Z,56.03
2023-02-01T15:14:40.397Z,56.33
2023-02-01T15:17:21.993Z,58.50
2023-02-01T15:19:58.490Z,58.97
2023-02-01T15:22:28.340Z,58.33
2023-02-01T15:24:58.818Z,59.80
2023-02-01T15:27:30.647Z,57.77
2023-02-01T15:30:10.147Z,58.13
2023-02-01T15:32:41.811Z,59.63
2023-02-01T15:35:43.646Z,61.57
2023-02-01T15:38:38.682Z,61.83
2023-02-01T15:41:18.306Z,62.23
2023-02-01T15:44:05.173Z,58.93
2023-02-01T15:46:38.022Z,59.17
2023-02-01T15:49:21.462Z,59.67
2023-02-01T15:51:51.245Z,59.73
2023-02-01T15:54:30.284Z,60.37
2023-02-01T15:57:02.391Z,62.53
2023-02-01T15:59:43.267Z,61.83
2023-02-01T16:02:29.815Z,62.77
2023-02-01T16:04:59.434Z,62.67
2023-02-01T16:07:30.979Z,62.27
2023-02-01T16:10:08.511Z,62.73
2023-02-01T16:12:49.132Z,61.53
2023-02-01T16:15:22.699Z,62.97
2023-02-01T16:17:57.137Z,101.33
2023-02-01T16:20:26.455Z,106.80
2023-02-01T16:22:55.639Z,95.83
2023-02-01T16:25:25.034Z,81.67
2023-02-01T16:27:55.379Z,73.97
2023-02-01T16:30:26.422Z,79.67
2023-02-01T16:32:56.759Z,89.57
2023-02-01T16:35:27.896Z,86.10
2023-02-01T16:37:57.323Z,80.37
2023-02-01T16:40:29.461Z,76.90
2023-02-01T16:42:58.495Z,80.03
2023-02-01T16:45:29.189Z,77.73
2023-02-01T16:48:00.432Z,73.33
2023-02-01T16:50:32.606Z,78.57
2023-02-01T16:53:01.692Z,78.63
2023-02-01T16:55:30.895Z,80.53
2023-02-01T16:58:00.122Z,80.60
2023-02-01T17:00:34.365Z,77.03
2023-02-01T17:03:05.516Z,80.80
2023-02-01T17:05:36.780Z,88.13
2023-02-01T17:08:09.046Z,83.93
2023-02-01T17:10:38.235Z,88.50
2023-02-01T17:13:07.391Z,80.33
2023-02-01T17:15:38.803Z,82.03
2023-02-01T17:18:10.318Z,78.37
2023-02-01T17:20:41.909Z,80.63
2023-02-01T17:23:12.448Z,80.53
2023-02-01T17:25:43.985Z,80.17
2023-02-01T17:28:13.752Z,81.03
2023-02-01T17:30:44.340Z,84.63
2023-02-01T17:33:24.139Z,89.37
2023-02-01T17:35:55.239Z,93.17
2023-02-01T17:38:24.605Z,106.93
2023-02-01T17:40:53.950Z,100.47
2023-02-01T17:43:24.795Z,99.70
2023-02-01T17:45:58.119Z,98.93
2023-02-01T17:48:28.681Z,96.97
2023-02-01T17:51:00.060Z,94.90
2023-02-01T17:53:31.134Z,95.67
2023-02-01T17:56:00.163Z,92.90
2023-02-01T17:58:30.733Z,94.50
2023-02-01T18:01:03.909Z,97.63
2023-02-01T18:03:35.961Z,95.50
2023-02-01T18:06:06.440Z,109.60
2023-02-01T18:08:37.400Z,102.50
2023-02-01T18:11:11.898Z,105.47
2023-02-01T18:13:42.335Z,97.03
2023-02-01T18:16:23.528Z,93.13
2023-02-01T18:18:53.151Z,91.87
2023-02-01T18:21:24.994Z,99.23
2023-02-01T18:23:54.212Z,97.13
2023-02-01T18:26:23.190Z,104.47
2023-02-01T18:28:52.418Z,120.63
2023-02-01T18:31:25.786Z,111.80
2023-02-01T18:33:56.516Z,111.50
2023-02-01T18:36:26.039Z,121.90
2023-02-01T18:38:56.708Z,116.63
2023-02-01T18:41:29.598Z,116.30
2023-02-01T18:43:58.647Z,118.30
2023-02-01T18:46:31.963Z,109.97
2023-02-01T18:49:01.411Z,131.37
2023-02-01T18:51:30.701Z,120.53
2023-02-01T18:53:59.872Z,110.77
2023-02-01T18:56:31.415Z,110.23
2023-02-01T18:59:00.781Z,104.17
2023-02-01T19:01:32.525Z,100.57
2023-02-01T19:04:10.255Z,101.03
2023-02-01T19:06:43.321Z,103.07
2023-02-01T19:09:12.375Z,101.93
2023-02-01T19:11:41.390Z,103.23
2023-02-01T19:14:10.818Z,103.00
2023-02-01T19:16:41.456Z,111.70
2023-02-01T19:19:10.567Z,105.33
2023-02-01T19:21:39.598Z,111.77
2023-02-01T19:24:09.656Z,109.53
2023-02-01T19:26:38.746Z,104.00
2023-02-01T19:29:07.827Z,107.10
2023-02-01T19:31:37.015Z,105.20
2023-02-01T19:34:09.671Z,107.20
2023-02-01T19:36:42.706Z,106.47
2023-02-01T19:39:14.765Z,100.53
2023-02-01T19:41:43.915Z,106.40
2023-02-01T19:44:14.797Z,98.47
2023-02-01T19:46:43.996Z,99.83
2023-02-01T19:49:15.669Z,102.50
2023-02-01T19:51:45.413Z,111.33
2023-02-01T19:54:14.585Z,121.10
2023-02-01T19:56:44.726Z,114.53
2023-02-01T19:59:14.315Z,129.07
2023-02-01T20:01:44.532Z,133.27
2023-02-01T20:04:15.762Z,114.90
2023-02-01T20:06:49.181Z,111.60
2023-02-01T20:09:22.948Z,117.00
2023-02-01T20:11:54.420Z,116.87
2023-02-01T20:14:24.714Z,116.43
2023-02-01T20:16:54.155Z,137.90
2023-02-01T20:19:25.036Z,99.57
2023-02-01T20:21:58.954Z,100.40
2023-02-01T20:24:28.290Z,99.70
2023-02-01T20:26:58.500Z,102.10
2023-02-01T20:29:28.005Z,106.10
2023-02-01T20:31:59.236Z,100.37
2023-02-01T20:34:29.752Z,104.90
2023-02-01T20:37:00.804Z,99.60
2023-02-01T20:39:30.497Z,103.50
2023-02-01T20:41:59.622Z,98.33
2023-02-01T20:44:28.648Z,99.60
2023-02-01T20:46:57.732Z,109.17
2023-02-01T20:49:26.881Z,104.17
2023-02-01T20:52:00.697Z,101.67
2023-02-01T20:54:31.234Z,106.00
2023-02-01T20:57:00.504Z,96.50
2023-02-01T20:59:31.404Z,102.87
2023-02-01T21:02:03.111Z,101.47
2023-02-01T21:04:34.362Z,103.80
2023-02-01T21:07:04.977Z,103.30
2023-02-01T21:09:34.045Z,98.87
2023-02-01T21:12:03.032Z,102.03
2023-02-01T21:14:33.123Z,115.87
2023-02-01T21:17:02.155Z,111.00
2023-02-01T21:19:43.071Z,107.83
2023-02-01T21:22:15.534Z,106.53
2023-02-01T21:24:45.912Z,98.67
2023-02-01T21:27:16.288Z,98.37
2023-02-01T21:29:45.358Z,98.57
2023-02-01T21:32:17.032Z,98.03
2023-02-01T21:34:46.185Z,100.03
2023-02-01T21:37:16.635Z,99.50
2023-02-01T21:39:47.048Z,100.20
2023-02-01T21:42:15.030Z,106.53
2023-02-01T21:44:46.442Z,104.33
2023-02-01T21:47:17.788Z,100.10
2023-02-01T21:49:47.221Z,101.87
2023-02-01T21:52:21.749Z,101.23
2023-02-01T21:55:06.941Z,103.07
2023-02-01T21:57:38.907Z,112.53
2023-02-01T22:00:09.982Z,118.00
2023-02-01T22:02:41.663Z,112.70
2023-02-01T22:05:11.543Z,108.47
2023-02-01T22:07:45.531Z,118.23
2023-02-01T22:10:14.749Z,116.50
2023-02-01T22:12:43.740Z,115.90
2023-02-01T22:15:13.674Z,119.30
2023-02-01T22:17:42.834Z,112.77
2023-02-01T22:20:15.622Z,115.70
2023-02-01T22:22:53.541Z,113.57
2023-02-01T22:25:22.929Z,122.50
2023-02-01T22:28:31.839Z,115.90
2023-02-01T22:30:43.948Z,103.70
2023-02-01T22:33:13.492Z,101.17
2023-02-01T22:35:42.514Z,98.93
2023-02-01T22:38:15.310Z,105.33
2023-02-01T22:40:46.190Z,101.83
2023-02-01T22:43:15.319Z,96.53
2023-02-01T22:45:44.397Z,99.70
2023-02-01T22:48:13.690Z,100.03
2023-02-01T22:50:42.741Z,101.10
2023-02-01T22:53:15.688Z,122.50
2023-02-01T22:55:45.754Z,108.43
2023-02-01T22:58:14.798Z,102.90
2023-02-01T23:00:43.779Z,103.47
2023-02-01T23:03:16.587Z,99.03
2023-02-01T23:05:45.726Z,102.33
2023-02-01T23:08:16.363Z,100.13
2023-02-01T23:10:45.439Z,98.37
2023-02-01T23:13:14.389Z,98.20
2023-02-01T23:15:43.477Z,95.77
2023-02-01T23:18:12.532Z,96.13
2023-02-01T23:20:42.537Z,94.27
2023-02-01T23:23:11.737Z,96.23
2023-02-01T23:25:42.225Z,101.27
2023-02-01T23:28:11.286Z,104.93
2023-02-01T23:30:40.518Z,98.90
2023-02-01T23:33:11.732Z,104.77
2023-02-01T23:35:40.804Z,99.00
2023-02-01T23:38:09.868Z,100.50
2023-02-01T23:40:38.988Z,96.10
2023-02-01T23:43:26.158Z,97.40
2023-02-01T23:45:59.909Z,99.97
2023-02-01T23:48:30.288Z,100.17
2023-02-01T23:51:01.634Z,96.37
2023-02-01T23:53:30.809Z,98.13
2023-02-01T23:55:59.868Z,94.23
2023-02-01T23:58:30.386Z,93.23
